Flight Track Log - Related Links

Times and Time Zones

All times are in EDT time to prevent confusion due to time zone crossing. See the FLG4139 flight status page for this flight to view local times or setup timezone preferences in your user account.

Time Position Orientation Groundspeed Altitude Reporting Facility
EDT Latitude Longitude Course Direction KTS MPH feet Rate Location/Type
Sat 07:19:45 AM 41.8969 -91.7647 324° Northwest 149 171 3,600  Level Chicago Center
Sat 07:20:46 AM 41.9419 -91.8067 325° Northwest 196 226 6,000 2,803 Climbing Chicago Center
Sat 07:21:00 AM 42.0641 -91.8974 323° Northwest  Level FlightAware Approximate
Sat 07:21:47 AM 41.9967 -91.8608 324° Northwest 233 268 9,300  Level Chicago Center
Sat 07:22:00 AM 42.1271 -91.9603 323° Northwest  Level FlightAware Approximate
Sat 07:22:47 AM 42.0681 -91.9286 325° Northwest 256 295 11,500  Level Chicago Center
Sat 07:23:00 AM 42.1900 -92.0233 323° Northwest  Level FlightAware Approximate
Sat 07:23:48 AM 42.1400 -91.9975 325° Northwest 301 346 13,800  Level Chicago Center
Sat 07:24:00 AM 42.2529 -92.0862 324° Northwest  Level FlightAware Approximate
Sat 07:24:49 AM 42.2125 -92.0664 325° Northwest 315 362 15,800  Level Chicago Center
Sat 07:25:50 AM 42.2878 -92.1389 325° Northwest 329 379 17,800 1,636 Climbing Chicago Center
Sat 07:26:50 AM 42.3647 -92.2119 325° Northwest 335 386 19,100 1,091 Climbing Chicago Center
Sat 07:27:51 AM 42.4442 -92.2892 324° Northwest 349 402 20,000 443 Climbing Chicago Center
Sat 07:28:52 AM 42.5292 -92.3731 324° Northwest 374 430 20,000  Level Chicago Center
Sat 07:29:53 AM 42.6206 -92.4569 326° Northwest 393 452 20,000  Level Chicago Center
Sat 07:30:58 AM 42.7281 -92.5561 326° Northwest 388 447 20,000  Level Minneapolis Center
Sat 07:31:59 AM 42.8164 -92.6375 326° Northwest 385 443 20,000  Level Minneapolis Center
Sat 07:32:59 AM 42.9053 -92.7192 326° Northwest 386 444 20,000  Level Minneapolis Center
Sat 07:34:00 AM 42.9936 -92.8014 326° Northwest 387 445 20,000  Level Minneapolis Center
Sat 07:35:00 AM 43.0819 -92.8844 326° Northwest 386 444 20,000  Level Minneapolis Center
Sat 07:36:01 AM 43.1711 -92.9661 326° Northwest 388 447 20,000  Level Minneapolis Center
Sat 07:37:01 AM 43.2572 -93.0508 324° Northwest 385 443 20,000  Level Minneapolis Center
Sat 07:38:03 AM 43.3456 -93.1325 326° Northwest 385 443 20,000  Level Minneapolis Center
Sat 07:39:03 AM 43.4339 -93.2144 326° Northwest 385 443 20,000  Level Minneapolis Center
Sat 07:40:04 AM 43.5239 -93.2900 329° Northwest 383 441 20,000  Level Minneapolis Center
Sat 07:41:04 AM 43.6508 -93.2764 North 411 473 20,000 -200 Level Minneapolis Center
Sat 07:42:04 AM 43.7631 -93.2667 North 408 470 19,600 -1,388 Descending Minneapolis Center
Sat 07:43:05 AM 43.8717 -93.2556 North 399 459 17,200 -2,331 Descending Minneapolis Center
Sat 07:44:05 AM 43.9756 -93.2456 North 382 440 14,900 -2,281 Descending Minneapolis Center
Sat 07:45:06 AM 44.0750 -93.2367 North 365 420 12,600 -2,231 Descending Minneapolis Center
Sat 07:46:06 AM 44.1736 -93.2272 North 354 407 10,400 -1,289 Descending Minneapolis Center
Sat 07:47:07 AM 44.2672 -93.2181 North 336 387 10,000 -295 Descending Minneapolis Center
Sat 07:48:08 AM 44.3464 -93.2108 North 279 321 9,800 -893 Descending Minneapolis Center
Sat 07:49:08 AM 44.4108 -93.1981 North 238 274 8,200 -1,388 Descending Minneapolis Center
Sat 07:50:09 AM 44.4750 -93.1764 14° North 239 275 7,000 -595 Descending Minneapolis Center
Sat 07:51:09 AM 44.5392 -93.1547 14° North 239 275 7,000 -595 Level Minneapolis Center
Sat 07:52:10 AM 44.6042 -93.1336 13° North 241 277 5,800 -1,339 Descending Minneapolis Center
Sat 07:53:10 AM 44.6636 -93.1131 14° North 226 260 4,300 -1,140 Descending Minneapolis Center
Sat 07:54:11 AM 44.7306 -93.0917 13° North 209 241 3,500 -645 Descending Minneapolis Center
Sat 07:55:11 AM 44.7781 -93.0750 14° North 181 208 3,000 -500 Descending Minneapolis Center

Login

Don't have an account? Register now (free) for customized features, flight alerts, and more!